Terminal Aerodrome Forecast
Issued by NWS Tulsa, OK

Home | Current Version | Previous Version | Text Only | Print | Product List | Glossary On
Versions: 1 2 3 4 5 6 7 8 9 10 11 12 13 14 15
000
FTUS44 KTSA 261137
TAFFSM
TAF
KFSM 261137Z 2612/2712 08004KT P6SM SCT040 BKN200
     FM261800 10007KT P6SM VCTS SCT050CB BKN100
     FM270100 07002KT P6SM BKN100 PROB30 2701/2705 4SM TSRA
      BKN050CB=

USA.gov is the U.S. government's official web portal to all federal, state and local government web resources and services.